Time;durP1;ratioP1;P1;durP2;ratioP2;P2;SDS_P1;SDS_P2;PMS_P1;PMS_P2;Temp;Humidity;BMP_temperature;BMP_pressure;BME280_temperature;BME280_humidity;BME280_pressure;Samples;Min_cycle;Max_cycle;Signal;HPM_P1;HPM_P2
2022/03/19 00:00:58;;;;;;;48.85;33.08;;;;;;;8.69;67.57;100009.41;4913996;29;20525;-49
2022/03/19 00:03:25;;;;;;;53.20;45.00;;;;;;;8.59;68.44;100008.66;4915527;29;20371;-49
2022/03/19 00:05:51;;;;;;;58.08;42.72;;;;;;;8.58;68.76;100009.66;4915248;29;20024;-49
2022/03/19 00:08:17;;;;;;;44.75;34.40;;;;;;;8.80;68.94;100021.38;4917680;29;20107;-49
2022/03/19 00:10:43;;;;;;;47.83;34.80;;;;;;;8.90;67.87;100016.84;4918870;29;20024;-49
2022/03/19 00:13:10;;;;;;;43.13;30.92;;;;;;;8.80;67.95;100019.56;4918832;29;20086;-48
2022/03/19 00:15:37;;;;;;;46.03;30.77;;;;;;;8.59;67.76;100009.50;4917413;29;20028;-48
2022/03/19 00:18:03;;;;;;;45.83;32.17;;;;;;;8.52;68.70;100008.47;4918537;29;20048;-49
2022/03/19 00:20:31;;;;;;;44.03;28.02;;;;;;;8.51;68.54;100011.22;4917318;29;20032;-48
2022/03/19 00:22:57;;;;;;;41.72;28.25;;;;;;;8.50;68.55;100017.44;4918598;29;20024;-49
2022/03/19 00:25:23;;;;;;;44.55;29.15;;;;;;;8.49;68.66;100016.63;4918557;29;20028;-49
2022/03/19 00:27:49;;;;;;;44.28;28.25;;;;;;;8.52;68.39;100015.50;4917289;29;20036;-48
2022/03/19 00:30:15;;;;;;;44.78;28.08;;;;;;;8.64;68.11;100016.06;4918573;29;20442;-49
2022/03/19 00:32:41;;;;;;;34.80;26.20;;;;;;;8.82;67.55;100014.19;4918495;29;20039;-50
2022/03/19 00:35:07;;;;;;;35.13;25.10;;;;;;;8.88;67.18;100016.19;4917148;29;20032;-48
2022/03/19 00:37:47;;;;;;;39.83;25.95;;;;;;;8.99;66.96;100022.94;4917182;29;20521;-50
2022/03/19 00:40:15;;;;;;;47.58;33.42;;;;;;;8.95;66.25;100014.59;4917108;29;20117;-49
2022/03/19 00:42:41;;;;;;;40.47;27.75;;;;;;;8.88;66.79;100024.03;4918204;29;20028;-48
2022/03/19 00:45:08;;;;;;;40.00;28.85;;;;;;;8.79;66.06;100028.41;4918226;29;20491;-49
2022/03/19 00:47:34;;;;;;;44.83;29.70;;;;;;;8.74;66.30;100033.28;4918233;29;20028;-49
2022/03/19 00:50:01;;;;;;;44.33;28.35;;;;;;;8.59;66.39;100027.81;4916921;29;20032;-49
2022/03/19 00:52:26;;;;;;;45.78;32.10;;;;;;;8.66;66.82;100027.19;4916806;29;20086;-49
2022/03/19 00:54:52;;;;;;;44.75;29.45;;;;;;;8.76;66.46;100028.72;4918090;29;20048;-49
2022/03/19 00:57:18;;;;;;;46.00;30.98;;;;;;;8.76;65.91;100038.38;4916802;29;20035;-49
2022/03/19 00:59:44;;;;;;;43.70;29.92;;;;;;;8.75;66.49;100042.78;4918023;29;20511;-49
2022/03/19 01:02:09;;;;;;;46.53;28.77;;;;;;;8.70;65.85;100037.19;4917936;29;20103;-49
2022/03/19 01:04:35;;;;;;;39.17;28.55;;;;;;;8.64;66.63;100035.19;4917955;29;20031;-48
2022/03/19 01:07:00;;;;;;;42.97;31.65;;;;;;;8.59;66.24;100040.91;4916563;29;20099;-49
2022/03/19 01:09:26;;;;;;;43.75;32.15;;;;;;;8.63;66.19;100037.97;4916528;29;20024;-49
2022/03/19 01:11:52;;;;;;;46.97;30.23;;;;;;;8.66;66.74;100035.84;4917771;29;20075;-49
2022/03/19 01:14:18;;;;;;;43.78;31.45;;;;;;;8.62;66.11;100034.53;4917761;29;20160;-48
2022/03/19 01:16:44;;;;;;;41.58;31.45;;;;;;;8.55;66.56;100026.47;4917956;29;20115;-48
2022/03/19 01:19:09;;;;;;;42.40;29.05;;;;;;;8.54;66.57;100024.81;4917242;29;20047;-49
2022/03/19 01:21:35;;;;;;;44.15;31.05;;;;;;;8.49;66.01;100021.88;4917581;29;20024;-49
2022/03/19 01:24:03;;;;;;;48.40;32.22;;;;;;;8.27;66.46;100031.00;4917461;29;20039;-50
2022/03/19 01:26:29;;;;;;;44.97;31.15;;;;;;;8.19;67.08;100033.56;4917506;29;20024;-48
2022/03/19 01:28:54;;;;;;;48.88;35.60;;;;;;;8.18;67.00;100027.47;4916200;29;20407;-49
2022/03/19 01:31:25;;;;;;;41.85;28.42;;;;;;;8.20;66.87;100035.19;4916112;29;20515;-49
2022/03/19 01:33:52;;;;;;;41.65;28.45;;;;;;;8.39;66.44;100026.31;4917501;29;20039;-49
2022/03/19 01:36:18;;;;;;;46.08;31.15;;;;;;;8.34;65.43;100028.59;4917367;29;20028;-48
2022/03/19 01:38:44;;;;;;;43.45;30.52;;;;;;;8.14;66.30;100026.13;4917341;29;20150;-49
2022/03/19 01:41:09;;;;;;;41.13;28.35;;;;;;;7.96;66.07;100026.16;4917291;29;20467;-48
2022/03/19 01:43:39;;;;;;;38.17;29.05;;;;;;;7.84;67.27;100026.53;4917167;29;20398;-49
2022/03/19 01:46:05;;;;;;;45.70;29.50;;;;;;;7.85;67.36;100029.00;4915899;29;20406;-48
2022/03/19 01:48:31;;;;;;;48.58;29.90;;;;;;;7.85;66.85;100023.78;4917142;29;20028;-49
2022/03/19 01:50:57;;;;;;;48.13;29.67;;;;;;;7.92;67.31;100024.00;4917098;29;20060;-49
2022/03/19 01:53:22;;;;;;;44.03;26.73;;;;;;;8.11;67.56;100028.22;4915784;29;20582;-49
2022/03/19 01:55:48;;;;;;;44.45;26.70;;;;;;;8.47;66.21;100021.19;4917011;29;20024;-49
2022/03/19 01:58:14;;;;;;;39.45;29.65;;;;;;;8.64;64.87;100023.91;4916966;29;20020;-49
2022/03/19 02:00:40;;;;;;;46.22;31.52;;;;;;;8.74;64.37;100012.34;4916863;29;20020;-48
2022/03/19 02:03:07;;;;;;;47.95;30.55;;;;;;;8.76;63.98;100014.81;4916802;29;20039;-49
2022/03/19 02:05:33;;;;;;;48.10;32.05;;;;;;;8.63;63.64;100011.78;4915476;29;20056;-49
2022/03/19 02:07:58;;;;;;;39.97;27.75;;;;;;;8.60;64.09;100021.59;4916806;29;20255;-49
2022/03/19 02:10:26;;;;;;;40.20;29.45;;;;;;;8.69;64.63;100019.88;4916692;29;20030;-48
2022/03/19 02:12:53;;;;;;;47.03;28.17;;;;;;;8.77;63.79;100014.66;4916695;29;20110;-49
2022/03/19 02:15:18;;;;;;;46.90;30.90;;;;;;;8.78;63.82;100018.09;4916625;29;20024;-49
2022/03/19 02:17:44;;;;;;;40.75;28.40;;;;;;;8.74;63.93;100014.97;4916410;29;20052;-48
2022/03/19 02:20:11;;;;;;;45.50;30.25;;;;;;;8.56;64.11;100020.25;4915215;29;20060;-48
2022/03/19 02:22:37;;;;;;;47.65;31.15;;;;;;;8.31;64.24;100019.25;4916440;29;20024;-49
2022/03/19 02:27:48;;;;;;;49.80;29.45;;;;;;;8.67;63.86;100021.81;4916727;29;20071;-49
2022/03/19 02:30:16;;;;;;;44.80;31.33;;;;;;;8.62;63.42;100015.41;4915840;29;20024;-49
2022/03/19 02:32:49;;;;;;;53.17;34.80;;;;;;;8.55;63.57;100018.63;4915063;29;20106;-49
2022/03/19 02:35:19;;;;;;;45.50;27.48;;;;;;;8.54;63.36;100019.59;4916336;29;20398;-49
2022/03/19 02:37:50;;;;;;;38.20;25.70;;;;;;;8.52;63.30;100007.66;4916293;29;20047;-48
2022/03/19 02:40:18;;;;;;;42.67;27.38;;;;;;;8.37;63.85;100010.78;4914860;29;20087;-49
2022/03/19 02:42:51;;;;;;;44.10;31.08;;;;;;;8.48;63.68;100009.75;4916106;29;20024;-48
2022/03/19 02:45:17;;;;;;;49.78;31.48;;;;;;;8.62;63.84;100010.97;4916215;29;20398;-48
2022/03/19 02:47:59;;;;;;;46.90;33.05;;;;;;;8.68;63.40;100018.22;4914792;29;20138;-50
2022/03/19 02:50:36;;;;;;;44.33;30.58;;;;;;;8.65;63.18;100017.69;4916153;29;20028;-49
2022/03/19 02:53:04;;;;;;;53.33;37.28;;;;;;;8.58;63.62;100014.88;4915964;29;20091;-49
2022/03/19 02:55:38;;;;;;;43.08;34.22;;;;;;;8.47;63.26;100015.97;4915949;29;20111;-47
2022/03/19 02:58:06;;;;;;;45.22;30.30;;;;;;;8.37;63.75;100010.78;4914743;29;20020;-49
2022/03/19 03:00:32;;;;;;;50.47;33.13;;;;;;;8.25;63.75;100022.47;4914591;29;20031;-49
2022/03/19 03:02:58;;;;;;;41.97;30.80;;;;;;;8.13;64.36;100021.06;4915823;29;20024;-48
2022/03/19 03:05:24;;;;;;;45.47;31.75;;;;;;;8.05;64.74;100011.38;4914557;29;20107;-48
2022/03/19 03:07:49;;;;;;;40.50;31.02;;;;;;;8.01;64.99;100015.25;4916043;29;20032;-49
2022/03/19 03:10:19;;;;;;;49.17;29.08;;;;;;;8.04;65.34;100017.56;4915736;29;20020;-48
2022/03/19 03:12:45;;;;;;;56.53;35.47;;;;;;;8.19;65.29;100015.25;4915760;29;20028;-48
2022/03/19 03:15:11;;;;;;;49.40;33.72;;;;;;;8.29;63.82;100015.97;4915690;29;20050;-50
2022/03/19 03:17:37;;;;;;;44.28;28.48;;;;;;;8.23;63.31;100015.75;4915536;29;20037;-49
2022/03/19 03:20:03;;;;;;;45.17;33.22;;;;;;;8.18;64.13;100019.63;4915672;29;20494;-49
2022/03/19 03:22:32;;;;;;;43.65;32.13;;;;;;;8.17;64.22;100027.66;4915585;29;20471;-49
2022/03/19 03:24:58;;;;;;;45.75;29.48;;;;;;;8.35;63.77;100019.75;4915622;29;20032;-48
2022/03/19 03:27:24;;;;;;;47.47;31.48;;;;;;;8.37;63.73;100028.25;4915587;29;20443;-49
2022/03/19 03:29:50;;;;;;;44.15;34.45;;;;;;;8.09;63.33;100025.78;4915612;29;20099;-49
2022/03/19 03:32:16;;;;;;;42.50;35.03;;;;;;;7.73;64.50;100028.41;4915499;29;20162;-48
2022/03/19 03:34:42;;;;;;;44.22;32.42;;;;;;;7.51;65.96;100026.22;4914270;29;20040;-48
2022/03/19 03:37:08;;;;;;;45.22;32.53;;;;;;;7.38;65.52;100019.56;4915512;29;20502;-49
2022/03/19 03:39:34;;;;;;;43.25;33.13;;;;;;;7.23;66.57;100018.41;4914339;29;20059;-49
2022/03/19 03:42:00;;;;;;;45.58;35.97;;;;;;;7.15;66.60;100026.97;4917705;29;20060;-49
2022/03/19 03:44:26;;;;;;;54.50;36.92;;;;;;;7.28;67.32;100026.59;4919306;29;20028;-50
2022/03/19 03:46:52;;;;;;;51.88;33.30;;;;;;;7.56;66.82;100029.19;4918017;29;20028;-49
2022/03/19 03:49:18;;;;;;;53.72;33.78;;;;;;;7.70;65.66;100026.06;4919294;29;20521;-48
2022/03/19 03:51:44;;;;;;;44.33;31.60;;;;;;;7.57;65.38;100020.41;4919239;29;20394;-48
2022/03/19 03:54:10;;;;;;;45.78;31.38;;;;;;;7.54;65.40;100026.72;4919169;29;20047;-48
2022/03/19 03:56:35;;;;;;;41.28;31.13;;;;;;;7.63;66.16;100030.25;4919183;29;20027;-49
2022/03/19 03:59:01;;;;;;;45.35;28.48;;;;;;;7.88;65.56;100020.84;4917798;29;20028;-49
2022/03/19 04:01:27;;;;;;;49.60;33.95;;;;;;;8.17;63.79;100027.66;4917709;29;20032;-48
2022/03/19 04:03:53;;;;;;;44.25;33.55;;;;;;;8.12;64.05;100030.69;4919011;29;20030;-48
2022/03/19 04:06:19;;;;;;;46.05;30.23;;;;;;;8.07;63.40;100032.13;4918924;29;20027;-48
2022/03/19 04:08:44;;;;;;;43.30;29.20;;;;;;;8.00;64.07;100024.06;4917635;29;20441;-48
2022/03/19 04:11:10;;;;;;;46.13;34.03;;;;;;;7.87;63.84;100024.44;4918896;29;20520;-48
2022/03/19 04:13:36;;;;;;;44.35;34.28;;;;;;;7.71;64.34;100035.56;4918881;29;20026;-48
2022/03/19 04:16:02;;;;;;;51.88;31.27;;;;;;;7.71;65.37;100030.34;4918858;29;20020;-49
2022/03/19 04:18:28;;;;;;;49.90;33.40;;;;;;;7.82;64.67;100031.91;4918475;29;20067;-49
2022/03/19 04:20:54;;;;;;;48.28;31.98;;;;;;;7.71;64.86;100034.75;4917406;29;20134;-48
2022/03/19 04:23:20;;;;;;;42.70;33.05;;;;;;;7.60;64.93;100033.16;4918604;29;20028;-49
2022/03/19 04:25:46;;;;;;;45.65;32.95;;;;;;;7.47;66.06;100040.56;4917327;29;20039;-49
2022/03/19 04:28:13;;;;;;;45.85;31.50;;;;;;;7.46;65.05;100039.69;4918596;29;20421;-49
2022/03/19 04:30:43;;;;;;;44.97;33.60;;;;;;;7.38;65.71;100034.41;4918567;29;20036;-48
2022/03/19 04:33:09;;;;;;;46.30;34.50;;;;;;;7.51;65.60;100041.91;4918534;29;20071;-49
2022/03/19 04:38:22;;;;;;;43.60;32.90;;;;;;;7.65;64.35;100035.34;4918674;29;20047;-48
2022/03/19 04:40:49;;;;;;;46.08;33.95;;;;;;;7.63;64.86;100040.72;4917077;29;20028;-48
2022/03/19 04:43:15;;;;;;;47.20;35.83;;;;;;;7.43;65.34;100036.59;4918229;29;20056;-49
2022/03/19 04:45:42;;;;;;;43.08;33.95;;;;;;;7.23;65.99;100041.09;4918333;29;20028;-48
2022/03/19 04:48:10;;;;;;;49.17;33.50;;;;;;;7.22;66.30;100042.03;4918220;29;20020;-48
2022/03/19 04:50:38;;;;;;;39.47;30.17;;;;;;;7.36;65.93;100049.38;4918194;29;20384;-48
2022/03/19 04:53:06;;;;;;;46.90;33.05;;;;;;;7.47;65.42;100040.56;4917548;29;20024;-49
2022/03/19 04:55:32;;;;;;;49.50;33.28;;;;;;;7.41;64.81;100044.56;4918028;29;20119;-49
2022/03/19 04:57:58;;;;;;;40.95;29.23;;;;;;;7.35;64.84;100047.75;4918113;29;20440;-48
2022/03/19 05:00:25;;;;;;;43.17;30.83;;;;;;;7.43;65.07;100044.41;4918007;29;20024;-49
2022/03/19 05:02:51;;;;;;;49.20;31.10;;;;;;;7.44;65.80;100038.22;4917816;29;20059;-49
2022/03/19 05:05:16;;;;;;;41.72;30.05;;;;;;;7.50;65.56;100038.44;4917978;29;20542;-48
2022/03/19 05:07:42;;;;;;;44.78;32.63;;;;;;;7.58;65.33;100041.13;4917884;29;20076;-47
2022/03/19 05:12:54;;;;;;;46.45;33.55;;;;;;;7.36;64.95;100036.31;4917873;29;20039;-49
2022/03/19 05:15:19;;;;;;;51.45;33.08;;;;;;;7.29;65.46;100043.94;4916419;29;20122;-48
2022/03/19 05:17:45;;;;;;;48.08;33.30;;;;;;;7.38;65.12;100042.22;4917489;29;20079;-49
2022/03/19 05:20:12;;;;;;;48.97;32.33;;;;;;;7.42;64.91;100048.81;4917679;29;20024;-49
2022/03/19 05:22:39;;;;;;;44.97;33.50;;;;;;;7.35;64.37;100042.53;4917563;29;20058;-48
2022/03/19 05:25:06;;;;;;;43.97;30.23;;;;;;;7.32;64.79;100042.81;4916226;29;20024;-48
2022/03/19 05:27:32;;;;;;;43.45;33.03;;;;;;;7.35;64.54;100047.75;4917564;29;20420;-49
2022/03/19 05:29:58;;;;;;;47.70;33.95;;;;;;;7.21;64.42;100051.66;4916185;29;20163;-47
2022/03/19 05:32:24;;;;;;;48.80;34.22;;;;;;;6.94;64.97;100055.91;4916147;29;20557;-48
2022/03/19 05:34:50;;;;;;;45.55;31.50;;;;;;;6.79;66.05;100052.91;4917407;29;20503;-48
2022/03/19 05:37:16;;;;;;;44.78;29.90;;;;;;;6.75;66.38;100056.78;4916304;29;20028;-49
2022/03/19 05:39:43;;;;;;;44.08;32.13;;;;;;;6.71;66.83;100062.44;4917325;29;20020;-48
2022/03/19 05:42:11;;;;;;;44.33;31.00;;;;;;;6.66;66.53;100060.25;4917170;29;20037;-48
2022/03/19 05:44:38;;;;;;;45.60;33.72;;;;;;;6.62;66.62;100055.44;4917274;29;20032;-48
2022/03/19 05:47:04;;;;;;;48.03;33.00;;;;;;;6.49;66.85;100058.34;4915886;29;20167;-48
2022/03/19 05:49:30;;;;;;;49.63;35.50;;;;;;;6.41;67.57;100064.25;4917163;29;20035;-49
2022/03/19 05:51:57;;;;;;;51.88;36.22;;;;;;;6.34;68.13;100069.22;4917085;29;20028;-48
2022/03/19 05:54:24;;;;;;;46.85;33.40;;;;;;;6.31;68.39;100066.06;4917078;29;20028;-48
2022/03/19 05:56:50;;;;;;;51.72;34.53;;;;;;;6.32;68.47;100065.09;4916988;29;20103;-49
2022/03/19 05:59:16;;;;;;;50.72;38.72;;;;;;;6.32;68.30;100065.09;4916937;29;20111;-48
2022/03/19 06:01:44;;;;;;;47.10;32.92;;;;;;;6.37;67.77;100074.13;4916926;29;20103;-49
2022/03/19 06:04:10;;;;;;;45.72;33.35;;;;;;;6.47;67.59;100075.91;4916487;29;20028;-49
2022/03/19 06:06:36;;;;;;;48.63;34.38;;;;;;;6.54;67.19;100070.00;4916334;29;20420;-48
2022/03/19 06:09:02;;;;;;;49.88;34.63;;;;;;;6.53;67.05;100078.78;4916716;29;20024;-48
2022/03/19 06:11:28;;;;;;;46.30;33.20;;;;;;;6.44;67.02;100077.03;4916807;29;20454;-48
2022/03/19 06:13:54;;;;;;;46.53;34.95;;;;;;;6.52;66.86;100068.50;4916729;29;20028;-48
2022/03/19 06:16:20;;;;;;;47.08;32.92;;;;;;;6.66;66.99;100068.06;4916908;29;20035;-48
2022/03/19 06:18:50;;;;;;;45.58;31.83;;;;;;;6.82;66.25;100071.88;4915141;29;20525;-48
2022/03/19 06:21:19;;;;;;;44.35;30.70;;;;;;;6.98;65.67;100072.09;4916686;29;20518;-48
2022/03/19 06:23:46;;;;;;;43.70;31.65;;;;;;;7.24;65.22;100066.22;4916518;29;20024;-48
2022/03/19 06:26:13;;;;;;;45.63;28.80;;;;;;;7.35;64.61;100079.91;4916475;29;20047;-48
2022/03/19 06:28:39;;;;;;;41.50;31.77;;;;;;;7.40;64.55;100069.88;4916377;29;20028;-48
2022/03/19 06:31:05;;;;;;;42.53;31.23;;;;;;;7.51;64.01;100074.06;4916364;29;20020;-48
2022/03/19 06:33:31;;;;;;;44.03;29.33;;;;;;;7.55;63.88;100074.59;4915064;29;20517;-49
2022/03/19 06:38:41;;;;;;;50.78;32.30;;;;;;;7.63;63.54;100076.47;4916625;29;20132;-49
2022/03/19 06:41:09;;;;;;;47.03;31.00;;;;;;;7.83;63.27;100071.91;4916234;29;20024;-48
2022/03/19 06:43:35;;;;;;;46.20;29.75;;;;;;;8.10;62.55;100069.25;4916174;29;20095;-47
2022/03/19 06:46:01;;;;;;;41.45;29.55;;;;;;;8.34;61.91;100081.72;4916158;29;20494;-48
2022/03/19 06:48:27;;;;;;;43.08;28.13;;;;;;;8.90;61.67;100066.59;4916357;29;20040;-48
2022/03/19 06:50:54;;;;;;;44.97;31.55;;;;;;;9.17;59.40;100073.41;4916091;29;20060;-48
2022/03/19 06:53:22;;;;;;;43.38;31.05;;;;;;;9.13;58.64;100079.94;4916029;29;20558;-49
2022/03/19 06:55:48;;;;;;;43.65;31.48;;;;;;;9.10;58.38;100082.91;4915982;29;20052;-48
2022/03/19 06:58:14;;;;;;;44.70;29.77;;;;;;;9.12;58.71;100080.13;4915937;29;20100;-49
2022/03/19 07:00:41;;;;;;;41.55;28.33;;;;;;;9.61;58.96;100077.69;4915902;29;20399;-48
2022/03/19 07:03:07;;;;;;;39.13;28.98;;;;;;;10.21;57.29;100079.28;4915809;29;20028;-48
2022/03/19 07:05:33;;;;;;;39.03;31.23;;;;;;;10.49;55.59;100071.09;4915864;29;20059;-49
2022/03/19 07:08:01;;;;;;;39.22;29.75;;;;;;;10.48;56.54;100064.19;4914525;29;20064;-49
2022/03/19 07:10:27;;;;;;;39.45;27.10;;;;;;;10.82;55.52;100066.59;4915820;29;20398;-49
2022/03/19 07:12:57;;;;;;;39.70;26.98;;;;;;;11.17;55.03;100069.81;4915777;29;20036;-49
2022/03/19 07:15:27;;;;;;;36.22;22.48;;;;;;;11.93;53.25;100063.03;4915731;29;20016;-49
2022/03/19 07:17:53;;;;;;;37.38;27.48;;;;;;;12.67;51.39;100057.13;4915377;29;20468;-49
2022/03/19 07:20:20;;;;;;;47.42;36.50;;;;;;;13.17;49.14;100057.41;4915693;29;20563;-49
2022/03/19 07:22:49;;;;;;;39.45;31.52;;;;;;;13.06;49.24;100052.59;4915620;29;20047;-48
2022/03/19 07:25:16;;;;;;;41.20;31.08;;;;;;;13.38;48.35;100060.16;4915674;29;20030;-49
2022/03/19 07:27:42;;;;;;;37.22;30.33;;;;;;;13.74;48.06;100062.00;4915647;29;20455;-49
2022/03/19 07:30:08;;;;;;;35.22;25.85;;;;;;;14.02;47.48;100061.22;4914259;29;20028;-49
2022/03/19 07:32:34;;;;;;;39.78;27.73;;;;;;;14.58;46.75;100058.66;4915547;29;20036;-49
2022/03/19 07:35:00;;;;;;;40.45;29.05;;;;;;;15.30;45.31;100054.00;4915816;29;20020;-50
2022/03/19 07:37:28;;;;;;;39.08;30.23;;;;;;;15.55;44.26;100049.00;4915511;29;20028;-49
2022/03/19 07:39:55;;;;;;;36.83;29.27;;;;;;;15.70;43.99;100064.72;4915488;29;20025;-50
2022/03/19 07:42:20;;;;;;;38.58;28.65;;;;;;;16.10;43.03;100053.44;4914102;29;20028;-49
2022/03/19 07:44:46;;;;;;;18.17;16.20;;;;;;;16.54;42.57;100057.25;4915462;29;20075;-49
2022/03/19 07:47:12;;;;;;;22.30;18.33;;;;;;;17.26;41.50;100055.50;4914126;29;20024;-50
2022/03/19 07:49:39;;;;;;;23.02;17.15;;;;;;;17.98;40.66;100046.56;4914190;29;20030;-48
2022/03/19 07:52:06;;;;;;;26.17;21.85;;;;;;;18.41;39.95;100051.13;4915425;29;20036;-50
2022/03/19 07:54:32;;;;;;;21.58;19.30;;;;;;;18.64;39.11;100043.34;4915400;29;20506;-50
2022/03/19 07:56:58;;;;;;;30.08;19.67;;;;;;;18.59;39.42;100045.03;4914136;29;20074;-49
2022/03/19 07:59:25;;;;;;;26.15;18.63;;;;;;;18.61;39.10;100045.63;4915420;29;20020;-50
2022/03/19 08:01:50;;;;;;;23.58;19.25;;;;;;;18.71;38.44;100040.63;4913968;29;20043;-50
2022/03/19 08:04:16;;;;;;;24.08;19.08;;;;;;;18.85;38.51;100044.78;4914008;29;20020;-49
2022/03/19 08:06:42;;;;;;;27.38;18.70;;;;;;;19.01;38.19;100046.06;4914046;29;20039;-50
2022/03/19 08:09:10;;;;;;;25.45;18.02;;;;;;;19.23;37.93;100032.31;4914000;29;20024;-49
2022/03/19 08:11:36;;;;;;;20.38;17.23;;;;;;;19.33;37.50;100040.56;4913998;29;20079;-51
2022/03/19 08:14:04;;;;;;;24.20;20.55;;;;;;;19.15;37.74;100036.06;4915253;29;20036;-50
2022/03/19 08:16:30;;;;;;;20.60;18.35;;;;;;;19.05;37.76;100043.78;4915238;29;20031;-50
2022/03/19 08:18:57;;;;;;;23.77;19.77;;;;;;;18.96;37.92;100038.75;4913736;29;20432;-50
2022/03/19 08:21:22;;;;;;;24.55;17.92;;;;;;;18.93;37.79;100039.22;4913886;29;20375;-50
2022/03/19 08:23:48;;;;;;;20.75;18.63;;;;;;;19.06;37.88;100043.56;4913808;29;20182;-49
2022/03/19 08:26:14;;;;;;;24.80;19.88;;;;;;;19.47;37.37;100038.53;4914164;29;20028;-51
2022/03/19 08:28:40;;;;;;;29.45;20.20;;;;;;;19.76;36.90;100039.63;4916617;29;20059;-50
2022/03/19 08:31:06;;;;;;;26.42;21.80;;;;;;;19.53;36.26;100037.63;4917365;29;20047;-50
2022/03/19 08:33:32;;;;;;;23.95;21.17;;;;;;;19.52;36.72;100041.34;4918605;29;20036;-50
2022/03/19 08:35:58;;;;;;;26.70;22.05;;;;;;;20.11;36.49;100038.88;4917232;29;20473;-50
2022/03/19 08:41:08;;;;;;;23.85;21.27;;;;;;;21.42;34.43;100030.50;4918528;29;20035;-50
2022/03/19 08:43:33;;;;;;;22.40;19.27;;;;;;;22.09;33.65;100027.16;4918291;29;20028;-50
2022/03/19 08:45:59;;;;;;;25.45;22.33;;;;;;;22.77;32.56;100023.59;4918314;29;20076;-50
2022/03/19 08:48:25;;;;;;;25.80;22.92;;;;;;;23.53;30.78;100021.81;4918277;29;20035;-49
2022/03/19 08:50:51;;;;;;;27.02;24.13;;;;;;;23.79;30.08;100018.59;4918220;29;20087;-50
2022/03/19 08:53:17;;;;;;;31.02;23.92;;;;;;;23.52;30.50;100017.53;4918217;29;20114;-51
2022/03/19 08:55:45;;;;;;;28.42;24.88;;;;;;;23.70;29.54;100016.34;4916815;29;20116;-51
2022/03/19 08:58:13;;;;;;;30.13;24.67;;;;;;;23.30;29.73;100020.25;4918125;29;20055;-51
2022/03/19 09:00:41;;;;;;;25.20;21.95;;;;;;;23.86;29.99;100016.50;4918054;29;20088;-51
2022/03/19 09:03:07;;;;;;;25.08;22.27;;;;;;;24.98;28.62;100021.00;4916682;29;20127;-51
2022/03/19 09:05:33;;;;;;;29.58;21.60;;;;;;;25.91;27.53;100012.06;4917098;29;20107;-50
2022/03/19 09:07:59;;;;;;;28.80;23.50;;;;;;;26.17;27.53;100015.56;4916609;29;20064;-51
2022/03/19 09:10:24;;;;;;;26.08;23.30;;;;;;;26.05;27.01;100017.72;4916614;29;20036;-50
2022/03/19 09:12:50;;;;;;;29.17;23.30;;;;;;;26.18;26.60;100014.47;4917808;29;20039;-51
2022/03/19 09:15:16;;;;;;;27.15;23.13;;;;;;;26.04;26.91;100014.22;4916532;29;20031;-50
2022/03/19 09:17:42;;;;;;;25.88;23.27;;;;;;;25.55;27.20;100009.31;4916379;29;20040;-51
2022/03/19 09:20:10;;;;;;;30.25;23.48;;;;;;;25.73;26.92;100015.25;4916415;29;20031;-51
2022/03/19 09:22:37;;;;;;;27.42;23.42;;;;;;;26.25;26.33;100011.50;4917584;29;20024;-51
2022/03/19 09:25:04;;;;;;;25.63;22.92;;;;;;;26.66;25.90;100006.88;4917638;29;20031;-50
2022/03/19 09:27:30;;;;;;;27.98;23.15;;;;;;;26.92;24.95;100006.75;4917590;29;20111;-50
2022/03/19 09:29:55;;;;;;;30.23;23.88;;;;;;;26.96;25.32;100001.63;4917551;29;20469;-50
2022/03/19 09:32:22;;;;;;;32.20;22.90;;;;;;;26.95;25.38;100000.81;4916207;29;20487;-51
2022/03/19 09:34:49;;;;;;;26.42;23.27;;;;;;;27.40;24.92;100007.06;4917468;29;20387;-51
2022/03/19 09:37:16;;;;;;;26.95;23.63;;;;;;;27.45;24.72;100000.84;4917456;29;20514;-51
2022/03/19 09:39:42;;;;;;;25.63;22.88;;;;;;;27.48;24.50;100005.66;4915977;29;20032;-51
2022/03/19 09:42:12;;;;;;;27.17;24.38;;;;;;;27.32;24.18;100006.84;4917305;29;20027;-50
2022/03/19 09:44:39;;;;;;;27.23;23.23;;;;;;;27.19;24.75;100002.84;4917256;29;20559;-51
2022/03/19 09:47:05;;;;;;;27.92;23.08;;;;;;;27.49;24.52;99997.28;4915922;29;20043;-51
2022/03/19 09:49:31;;;;;;;26.85;21.45;;;;;;;27.49;24.44;99996.50;4917280;29;20088;-51
2022/03/19 09:52:01;;;;;;;27.88;22.83;;;;;;;27.44;24.14;99994.63;4917132;29;20021;-50
2022/03/19 09:54:27;;;;;;;25.80;23.20;;;;;;;27.55;24.23;99991.84;4917122;29;20067;-50
2022/03/19 09:56:53;;;;;;;27.58;22.85;;;;;;;27.27;24.43;99999.59;4915714;29;20071;-51
2022/03/19 09:59:22;;;;;;;26.85;24.05;;;;;;;27.13;24.85;99987.81;4915768;29;20549;-51
2022/03/19 10:01:50;;;;;;;29.08;22.65;;;;;;;27.36;24.19;99991.72;4916991;29;20035;-51
2022/03/19 10:04:19;;;;;;;26.38;23.55;;;;;;;27.94;23.57;99988.34;4916900;29;20111;-51
2022/03/19 10:09:43;;;;;;;26.42;22.88;;;;;;;29.56;21.78;99972.31;4916850;29;20039;-51
2022/03/19 10:12:17;;;;;;;27.48;21.70;;;;;;;29.70;21.40;99969.66;4915671;29;20405;-51
2022/03/19 10:14:54;;;;;;;26.05;23.27;;;;;;;29.70;21.73;99965.06;4915515;29;20124;-51
2022/03/19 10:17:31;;;;;;;23.77;21.27;;;;;;;30.14;20.89;99968.38;4915207;29;20467;-51
2022/03/19 10:19:59;;;;;;;23.42;20.95;;;;;;;30.66;20.37;99958.16;4915407;29;20633;-51
2022/03/19 10:22:28;;;;;;;24.08;21.50;;;;;;;31.19;19.77;99960.28;4915216;29;20032;-51
2022/03/19 10:25:03;;;;;;;25.88;21.15;;;;;;;31.54;19.23;99954.34;4916515;29;20477;-51
2022/03/19 10:27:37;;;;;;;23.15;20.75;;;;;;;31.69;18.46;99951.22;4916633;29;20232;-51
2022/03/19 10:30:15;;;;;;;22.33;19.85;;;;;;;31.90;18.66;99942.56;4916481;29;20032;-50
2022/03/19 10:32:41;;;;;;;26.02;21.45;;;;;;;31.64;18.91;99945.94;4916456;29;20087;-51
2022/03/19 10:35:27;;;;;;;25.15;19.90;;;;;;;31.37;19.01;99944.13;4915074;29;20047;-51
2022/03/19 10:37:53;;;;;;;26.05;20.90;;;;;;;31.04;18.73;99947.06;4916534;29;20573;-51
2022/03/19 10:40:20;;;;;;;25.75;21.50;;;;;;;30.90;18.51;99947.09;4916257;29;20423;-51
2022/03/19 10:42:46;;;;;;;25.23;22.58;;;;;;;30.98;18.38;99940.94;4916193;29;20060;-50
2022/03/19 10:45:21;;;;;;;23.98;21.38;;;;;;;30.72;18.54;99937.19;4916192;29;20023;-51
2022/03/19 10:47:48;;;;;;;25.40;21.48;;;;;;;30.43;18.78;99933.69;4914931;29;20040;-51
2022/03/19 10:50:22;;;;;;;23.73;21.33;;;;;;;30.63;18.85;99931.69;4916058;29;20035;-51
2022/03/19 10:52:50;;;;;;;27.58;21.60;;;;;;;30.71;18.19;99928.25;4915788;29;20506;-52
2022/03/19 10:55:17;;;;;;;25.70;20.98;;;;;;;30.35;18.76;99920.88;4914768;29;20083;-51
2022/03/19 10:57:44;;;;;;;28.35;21.75;;;;;;;29.07;19.79;99921.09;4916006;29;20028;-50
2022/03/19 11:00:11;;;;;;;27.42;22.27;;;;;;;29.09;19.64;99926.22;4915953;29;20028;-51
2022/03/19 11:02:44;;;;;;;26.35;23.48;;;;;;;29.26;20.10;99920.34;4915871;29;20110;-51
2022/03/19 11:05:11;;;;;;;28.65;22.27;;;;;;;29.32;19.64;99918.31;4915939;29;20099;-51
2022/03/19 11:07:42;;;;;;;30.67;23.80;;;;;;;29.39;19.49;99918.78;4914696;29;20513;-51
2022/03/19 11:10:09;;;;;;;27.02;23.98;;;;;;;28.92;20.11;99917.84;4915863;29;20070;-51
2022/03/19 11:12:40;;;;;;;27.70;24.55;;;;;;;28.74;20.26;99925.63;4915785;29;20039;-51
2022/03/19 11:15:09;;;;;;;33.28;26.23;;;;;;;29.04;20.37;99920.91;4915854;29;20028;-51
2022/03/19 11:17:38;;;;;;;28.77;23.90;;;;;;;29.11;20.02;99924.06;4914224;29;20048;-50
2022/03/19 11:20:07;;;;;;;28.65;23.52;;;;;;;29.16;20.21;99909.69;4915729;29;20028;-50
2022/03/19 11:22:42;;;;;;;30.60;24.80;;;;;;;29.00;20.20;99923.38;4915626;29;20029;-51
2022/03/19 11:25:22;;;;;;;29.27;24.35;;;;;;;28.77;20.38;99908.81;4915659;29;20039;-51
2022/03/19 11:27:51;;;;;;;31.25;26.33;;;;;;;28.69;20.58;99912.19;4915966;29;20500;-50
2022/03/19 11:30:17;;;;;;;29.05;23.85;;;;;;;28.81;20.51;99914.47;4914278;29;20024;-51